createdAt,value
2018-07-12T00:00:24.835Z,0
2018-07-12T00:01:33.697Z,0
2018-07-12T00:02:42.560Z,0
2018-07-12T00:03:51.420Z,0
2018-07-12T00:05:00.553Z,0
2018-07-12T00:06:09.512Z,0
2018-07-12T00:07:18.371Z,0
2018-07-12T00:08:27.232Z,0
2018-07-12T00:09:36.367Z,0
2018-07-12T00:10:45.227Z,0
2018-07-12T00:11:54.234Z,0
2018-07-12T00:13:03.096Z,0
2018-07-12T00:14:11.956Z,0
2018-07-12T00:15:20.815Z,0
2018-07-12T00:16:29.955Z,0
2018-07-12T00:17:39.094Z,0
2018-07-12T00:18:47.955Z,0
2018-07-12T00:19:57.089Z,0
2018-07-12T00:21:05.953Z,0
2018-07-12T00:22:14.812Z,0
2018-07-12T00:23:23.948Z,0
2018-07-12T00:24:33.089Z,0
2018-07-12T00:25:42.225Z,0
2018-07-12T00:26:51.090Z,0
2018-07-12T00:27:59.948Z,0
2018-07-12T00:29:09.243Z,0
2018-07-12T00:30:18.147Z,0
2018-07-12T00:31:27.245Z,0
2018-07-12T00:32:36.104Z,0
2018-07-12T00:33:45.371Z,0
2018-07-12T00:34:54.608Z,0
2018-07-12T00:36:03.469Z,0
2018-07-12T00:37:12.330Z,0
2018-07-12T00:38:21.470Z,0
2018-07-12T00:39:30.331Z,0
2018-07-12T00:40:39.341Z,0
2018-07-12T00:41:48.201Z,0
2018-07-12T00:42:57.062Z,0
2018-07-12T00:44:05.924Z,0
2018-07-12T00:45:14.786Z,0
2018-07-12T00:46:24.270Z,0
2018-07-12T00:47:33.127Z,0
2018-07-12T00:48:41.987Z,0
2018-07-12T00:49:50.847Z,0
2018-07-12T00:50:59.706Z,0
2018-07-12T00:52:08.716Z,0
2018-07-12T00:53:17.576Z,0
2018-07-12T00:54:26.435Z,0
2018-07-12T00:55:35.566Z,0
2018-07-12T00:56:44.426Z,0
2018-07-12T00:57:53.723Z,0
2018-07-12T00:59:02.583Z,0
2018-07-12T01:00:11.444Z,0
2018-07-12T01:01:20.307Z,0
2018-07-12T01:02:29.168Z,0
2018-07-12T01:03:38.028Z,0
2018-07-12T01:04:46.886Z,0
2018-07-12T01:05:55.750Z,0
2018-07-12T01:07:04.606Z,0
2018-07-12T01:08:13.464Z,0
2018-07-12T01:09:22.474Z,0
2018-07-12T01:10:31.336Z,0
2018-07-12T01:11:40.194Z,0
2018-07-12T01:12:49.053Z,0
2018-07-12T01:13:58.189Z,0
2018-07-12T01:15:07.055Z,0
2018-07-12T01:16:15.910Z,0
2018-07-12T01:17:24.768Z,0
2018-07-12T01:18:34.181Z,0
2018-07-12T01:19:43.043Z,0
2018-07-12T01:20:52.178Z,0
2018-07-12T01:22:01.039Z,0
2018-07-12T01:23:10.461Z,0
2018-07-12T01:24:19.606Z,0
2018-07-12T01:25:28.464Z,0
2018-07-12T01:26:37.324Z,0
2018-07-12T01:27:46.476Z,0
2018-07-12T01:28:55.329Z,0
2018-07-12T01:30:04.187Z,0
2018-07-12T01:31:13.046Z,0
2018-07-12T01:32:21.906Z,0
2018-07-12T01:33:31.040Z,0
2018-07-12T01:34:39.899Z,0
2018-07-12T01:35:49.316Z,0
2018-07-12T01:36:58.178Z,0
2018-07-12T01:38:07.036Z,0
2018-07-12T01:39:16.178Z,0
2018-07-12T01:40:25.036Z,0
2018-07-12T01:41:33.895Z,0
2018-07-12T01:42:42.755Z,0
2018-07-12T01:43:51.763Z,0
2018-07-12T01:45:00.897Z,0
2018-07-12T01:46:10.035Z,0
2018-07-12T01:47:19.174Z,0
2018-07-12T01:48:28.035Z,0
2018-07-12T01:49:37.176Z,0
2018-07-12T01:50:46.034Z,0
2018-07-12T01:51:55.445Z,0
2018-07-12T01:53:04.307Z,0
2018-07-12T01:54:13.167Z,0
2018-07-12T01:55:22.128Z,0
2018-07-12T01:56:30.989Z,0
2018-07-12T01:57:39.847Z,0
2018-07-12T01:58:48.986Z,0
2018-07-12T01:59:57.848Z,0
2018-07-12T02:01:06.707Z,0
2018-07-12T02:02:15.565Z,0
2018-07-12T02:03:24.703Z,0
2018-07-12T02:04:34.121Z,0
2018-07-12T02:05:43.261Z,0
2018-07-12T02:06:52.272Z,0
2018-07-12T02:08:01.411Z,0
2018-07-12T02:09:10.268Z,0
2018-07-12T02:10:19.128Z,0
2018-07-12T02:11:27.989Z,0
2018-07-12T02:12:36.948Z,0
2018-07-12T02:13:45.811Z,0
2018-07-12T02:14:54.668Z,0
2018-07-12T02:16:03.528Z,0
2018-07-12T02:17:12.666Z,0
2018-07-12T02:18:21.874Z,0
2018-07-12T02:19:30.730Z,0
2018-07-12T02:20:39.592Z,0
2018-07-12T02:21:48.450Z,0
2018-07-12T02:22:57.307Z,0
2018-07-12T02:24:06.169Z,0
2018-07-12T02:25:15.025Z,0
2018-07-12T02:26:23.888Z,0
2018-07-12T02:27:32.795Z,0
2018-07-12T02:28:41.617Z,0
2018-07-12T02:29:50.627Z,0
2018-07-12T02:30:59.767Z,0
2018-07-12T02:32:08.907Z,0
2018-07-12T02:33:18.045Z,4
2018-07-12T02:34:26.907Z,4
2018-07-12T02:35:36.423Z,4
2018-07-12T02:36:45.562Z,4
2018-07-12T02:37:54.704Z,0
2018-07-12T02:39:04.128Z,4
2018-07-12T02:40:12.991Z,4
2018-07-12T02:41:22.232Z,4
2018-07-12T02:42:31.377Z,4
2018-07-12T02:43:40.516Z,4
2018-07-12T02:44:49.924Z,8
2018-07-12T02:45:59.352Z,8
2018-07-12T02:47:09.122Z,8
2018-07-12T02:48:18.811Z,8
2018-07-12T02:49:27.950Z,8
2018-07-12T02:50:37.086Z,8
2018-07-12T02:51:46.224Z,16
2018-07-12T02:52:55.190Z,16
2018-07-12T02:54:04.898Z,16
2018-07-12T02:55:14.323Z,20
2018-07-12T02:56:23.739Z,20
2018-07-12T02:57:32.602Z,24
2018-07-12T02:58:41.462Z,28
2018-07-12T02:59:50.320Z,32
2018-07-12T03:00:59.459Z,36
2018-07-12T03:02:08.324Z,40
2018-07-12T03:03:17.475Z,44
2018-07-12T03:04:26.909Z,48
2018-07-12T03:05:36.049Z,52
2018-07-12T03:06:44.919Z,60
2018-07-12T03:07:54.054Z,64
2018-07-12T03:09:04.066Z,68
2018-07-12T03:10:13.028Z,80
2018-07-12T03:11:22.446Z,84
2018-07-12T03:12:31.865Z,96
2018-07-12T03:13:41.004Z,104
2018-07-12T03:14:49.859Z,116
2018-07-12T03:15:58.996Z,124
2018-07-12T03:17:07.865Z,132
2018-07-12T03:18:16.724Z,140
2018-07-12T03:19:25.864Z,148
2018-07-12T03:20:34.728Z,160
2018-07-12T03:21:44.016Z,172
2018-07-12T03:22:53.165Z,176
2018-07-12T03:24:02.028Z,188
2018-07-12T03:25:11.168Z,200
2018-07-12T03:26:20.031Z,212
2018-07-12T03:27:29.165Z,224
2018-07-12T03:28:38.025Z,240
2018-07-12T03:29:46.883Z,252
2018-07-12T03:30:56.036Z,264
2018-07-12T03:32:05.456Z,276
2018-07-12T03:33:14.468Z,288
2018-07-12T03:34:23.328Z,304
2018-07-12T03:35:32.190Z,316
2018-07-12T03:36:41.047Z,328
2018-07-12T03:37:50.183Z,340
2018-07-12T03:38:59.040Z,356
2018-07-12T03:40:07.905Z,372
2018-07-12T03:41:16.764Z,396
2018-07-12T03:42:25.622Z,416
2018-07-12T03:43:34.482Z,432
2018-07-12T03:44:43.623Z,452
2018-07-12T03:45:52.759Z,464
2018-07-12T03:47:01.614Z,484
2018-07-12T03:48:10.478Z,504
2018-07-12T03:49:19.339Z,512
2018-07-12T03:50:29.127Z,536
2018-07-12T03:51:37.988Z,552
2018-07-12T03:52:46.846Z,568
2018-07-12T03:53:55.706Z,592
2018-07-12T03:55:04.565Z,604
2018-07-12T03:56:13.425Z,612
2018-07-12T03:57:22.563Z,644
2018-07-12T03:58:31.702Z,668
2018-07-12T03:59:40.557Z,680
2018-07-12T04:00:49.695Z,700
2018-07-12T04:01:58.705Z,724
2018-07-12T04:03:07.563Z,756
2018-07-12T04:04:16.421Z,776
2018-07-12T04:05:25.283Z,804
2018-07-12T04:06:34.139Z,820
2018-07-12T04:07:43.698Z,836
2018-07-12T04:08:52.558Z,860
2018-07-12T04:10:01.415Z,880
2018-07-12T04:11:10.275Z,900
2018-07-12T04:12:19.132Z,920
2018-07-12T04:13:28.627Z,940
2018-07-12T04:14:37.478Z,956
2018-07-12T04:15:46.337Z,976
2018-07-12T04:16:55.197Z,996
2018-07-12T04:18:04.061Z,1012
2018-07-12T04:19:13.072Z,1032
2018-07-12T04:20:21.931Z,1056
2018-07-12T04:21:30.790Z,1076
2018-07-12T04:22:39.652Z,1096
2018-07-12T04:23:48.511Z,1100
2018-07-12T04:24:57.371Z,1128
2018-07-12T04:26:06.233Z,1168
2018-07-12T04:27:15.377Z,1236
2018-07-12T04:28:24.236Z,1220
2018-07-12T04:29:33.374Z,1196
2018-07-12T04:30:42.386Z,1208
2018-07-12T04:31:51.521Z,1240
2018-07-12T04:33:00.380Z,1308
2018-07-12T04:34:09.518Z,1332
2018-07-12T04:35:18.656Z,1276
2018-07-12T04:36:27.866Z,1380
2018-07-12T04:37:37.035Z,1356
2018-07-12T04:38:46.191Z,1380
2018-07-12T04:39:55.051Z,1484
2018-07-12T04:41:03.909Z,1448
2018-07-12T04:42:12.771Z,1484
2018-07-12T04:43:21.956Z,1500
2018-07-12T04:44:30.816Z,1580
2018-07-12T04:45:39.674Z,1612
2018-07-12T04:46:48.533Z,1668
2018-07-12T04:47:57.824Z,1552
2018-07-12T04:49:07.235Z,1552
2018-07-12T04:50:16.378Z,1520
2018-07-12T04:51:25.515Z,1540
2018-07-12T04:52:34.665Z,1596
2018-07-12T04:53:43.680Z,1580
2018-07-12T04:54:52.814Z,1580
2018-07-12T04:56:01.673Z,1652
2018-07-12T04:57:10.810Z,1664
2018-07-12T04:58:19.819Z,1644
2018-07-12T04:59:28.961Z,1664
2018-07-12T05:00:37.822Z,1688
2018-07-12T05:01:46.957Z,1688
2018-07-12T05:02:56.095Z,1704
2018-07-12T05:04:05.229Z,1724
2018-07-12T05:05:14.087Z,1764
2018-07-12T05:06:23.228Z,1728
2018-07-12T05:07:32.088Z,1724
2018-07-12T05:08:40.947Z,1736
2018-07-12T05:09:49.803Z,1700
2018-07-12T05:10:58.940Z,1704
2018-07-12T05:12:08.083Z,1664
2018-07-12T05:13:17.248Z,1664
2018-07-12T05:14:26.086Z,1688
2018-07-12T05:15:34.946Z,1688
2018-07-12T05:16:44.235Z,1716
2018-07-12T05:17:53.095Z,1760
2018-07-12T05:19:01.951Z,1752
2018-07-12T05:20:11.098Z,1748
2018-07-12T05:21:19.959Z,1760
2018-07-12T05:22:28.973Z,1800
2018-07-12T05:23:37.833Z,1772
2018-07-12T05:24:46.690Z,1808
2018-07-12T05:25:55.842Z,1788
2018-07-12T05:27:04.984Z,1800
2018-07-12T05:28:14.197Z,1928
2018-07-12T05:29:23.059Z,2004
2018-07-12T05:30:31.917Z,1908
2018-07-12T05:31:40.779Z,1944
2018-07-12T05:32:49.638Z,2008
2018-07-12T05:33:58.924Z,1992
2018-07-12T05:35:07.786Z,2216
2018-07-12T05:36:16.650Z,2020
2018-07-12T05:37:25.508Z,2040
2018-07-12T05:38:34.369Z,2000
2018-07-12T05:39:43.510Z,2024
2018-07-12T05:40:52.647Z,2000
2018-07-12T05:42:01.506Z,1992
2018-07-12T05:43:10.365Z,1992
2018-07-12T05:44:19.227Z,2000
2018-07-12T05:45:28.088Z,1988
2018-07-12T05:46:37.017Z,2016
2018-07-12T05:47:45.809Z,1980
2018-07-12T05:48:54.948Z,1988
2018-07-12T05:50:03.858Z,2016
2018-07-12T05:51:12.868Z,1980
2018-07-12T05:52:22.026Z,1980
2018-07-12T05:53:30.885Z,1984
2018-07-12T05:54:39.744Z,1980
2018-07-12T05:55:48.606Z,1976
2018-07-12T05:56:57.466Z,1976
2018-07-12T05:58:06.325Z,1984
2018-07-12T05:59:15.186Z,1980
2018-07-12T06:00:24.606Z,1972
2018-07-12T06:01:33.800Z,1988
2018-07-12T06:02:42.664Z,1972
2018-07-12T06:03:51.822Z,1972
2018-07-12T06:05:00.682Z,1996
2018-07-12T06:06:09.546Z,2020
2018-07-12T06:07:18.408Z,2028
2018-07-12T06:08:27.423Z,2020
2018-07-12T06:09:36.287Z,1984
2018-07-12T06:10:45.146Z,1964
2018-07-12T06:11:54.010Z,1948
2018-07-12T06:13:02.867Z,1944
2018-07-12T06:14:12.042Z,1952
2018-07-12T06:15:20.901Z,1964
2018-07-12T06:16:30.046Z,1964
2018-07-12T06:17:38.908Z,1968
2018-07-12T06:18:48.141Z,1956
2018-07-12T06:19:57.109Z,1956
2018-07-12T06:21:06.249Z,1952
2018-07-12T06:22:15.109Z,1968
2018-07-12T06:23:24.247Z,1972
2018-07-12T06:24:33.412Z,1984
2018-07-12T06:25:42.652Z,1976
2018-07-12T06:26:51.791Z,1976
2018-07-12T06:28:00.654Z,1972
2018-07-12T06:29:09.515Z,1960
2018-07-12T06:30:18.374Z,1960
2018-07-12T06:31:27.659Z,1964
2018-07-12T06:32:36.519Z,1952
2018-07-12T06:33:45.941Z,1948
2018-07-12T06:34:54.807Z,1948
2018-07-12T06:36:03.942Z,1932
2018-07-12T06:37:13.468Z,1924
2018-07-12T06:38:22.266Z,1916
2018-07-12T06:39:31.124Z,1912
2018-07-12T06:40:39.986Z,1916
2018-07-12T06:41:48.847Z,1916
2018-07-12T06:42:57.711Z,1912
2018-07-12T06:44:06.572Z,1912
2018-07-12T06:45:15.435Z,1912
2018-07-12T06:46:24.846Z,1916
2018-07-12T06:47:33.708Z,1912
2018-07-12T06:48:42.569Z,1912
2018-07-12T06:49:51.431Z,1928
2018-07-12T06:51:00.297Z,1944
2018-07-12T06:52:09.154Z,1960
2018-07-12T06:53:18.015Z,1960
2018-07-12T06:54:26.880Z,1960
2018-07-12T06:55:36.015Z,1964
2018-07-12T06:56:44.873Z,1976
2018-07-12T06:57:53.734Z,1976
2018-07-12T06:59:02.878Z,1964
2018-07-12T07:00:11.743Z,1996
2018-07-12T07:01:20.879Z,2004
2018-07-12T07:02:29.743Z,1984
2018-07-12T07:03:38.606Z,2004
2018-07-12T07:04:47.466Z,2016
2018-07-12T07:05:56.529Z,2016
2018-07-12T07:07:05.637Z,1988
2018-07-12T07:08:14.502Z,1996
2018-07-12T07:09:23.360Z,2008
2018-07-12T07:10:32.218Z,2020
2018-07-12T07:11:41.428Z,2012
2018-07-12T07:12:50.564Z,1992
2018-07-12T07:13:59.426Z,1996
2018-07-12T07:15:08.286Z,1988
2018-07-12T07:16:17.149Z,1996
2018-07-12T07:17:26.112Z,2016
2018-07-12T07:18:35.245Z,2020
2018-07-12T07:19:44.106Z,2020
2018-07-12T07:20:52.968Z,2040
2018-07-12T07:22:02.111Z,2064
2018-07-12T07:23:11.122Z,2076
2018-07-12T07:24:20.260Z,2056
2018-07-12T07:25:29.123Z,2036
2018-07-12T07:26:37.984Z,2028
2018-07-12T07:27:46.848Z,2052
2018-07-12T07:28:55.710Z,2096
2018-07-12T07:30:04.856Z,2096
2018-07-12T07:31:13.991Z,2092
2018-07-12T07:32:22.862Z,2072
2018-07-12T07:33:31.717Z,2084
2018-07-12T07:34:40.577Z,2084
2018-07-12T07:35:49.441Z,2104
2018-07-12T07:36:58.303Z,2096
2018-07-12T07:38:07.439Z,2096
2018-07-12T07:39:16.307Z,2088
2018-07-12T07:40:25.168Z,2088
2018-07-12T07:41:34.031Z,2076
2018-07-12T07:42:42.892Z,2072
2018-07-12T07:43:51.752Z,2076
2018-07-12T07:45:00.615Z,2064
2018-07-12T07:46:09.636Z,2084
2018-07-12T07:47:18.493Z,2108
2018-07-12T07:48:27.354Z,2148
2018-07-12T07:49:36.216Z,2104
2018-07-12T07:50:45.358Z,2108
2018-07-12T07:51:54.322Z,2132
2018-07-12T07:53:03.187Z,2132
2018-07-12T07:54:12.328Z,2116
2018-07-12T07:55:21.191Z,2108
2018-07-12T07:56:30.055Z,2100
2018-07-12T07:57:38.915Z,2068
2018-07-12T07:58:47.778Z,2072
2018-07-12T07:59:56.645Z,2072
2018-07-12T08:01:05.521Z,2088
2018-07-12T08:02:14.667Z,2072
2018-07-12T08:03:24.199Z,2084
2018-07-12T08:04:33.424Z,2088
2018-07-12T08:05:42.286Z,2104
2018-07-12T08:06:51.147Z,2092
2018-07-12T08:08:00.007Z,2076
2018-07-12T08:09:09.308Z,2064
2018-07-12T08:10:18.452Z,2068
2018-07-12T08:11:27.312Z,2068
2018-07-12T08:12:36.174Z,2080
2018-07-12T08:13:45.037Z,2084
2018-07-12T08:14:54.329Z,2092
2018-07-12T08:16:03.189Z,2112
2018-07-12T08:17:12.051Z,2124
2018-07-12T08:18:20.915Z,2108
2018-07-12T08:19:30.068Z,2124
2018-07-12T08:20:39.082Z,2108
2018-07-12T08:21:47.946Z,2116
2018-07-12T08:22:56.810Z,2120
2018-07-12T08:24:05.677Z,2152
2018-07-12T08:25:14.540Z,2192
2018-07-12T08:26:23.555Z,2188
2018-07-12T08:27:32.418Z,2208
2018-07-12T08:28:41.278Z,2220
2018-07-12T08:29:50.485Z,2264
2018-07-12T08:30:59.333Z,2292
2018-07-12T08:32:08.469Z,2336
2018-07-12T08:33:17.341Z,2324
2018-07-12T08:34:26.191Z,2292
2018-07-12T08:35:35.055Z,2304
2018-07-12T08:36:43.919Z,2308
2018-07-12T08:37:52.782Z,2304
2018-07-12T08:39:01.930Z,2296
2018-07-12T08:40:11.075Z,2296
2018-07-12T08:41:19.938Z,2320
2018-07-12T08:42:28.861Z,2356
2018-07-12T08:43:37.717Z,2404
2018-07-12T08:44:46.581Z,2432
2018-07-12T08:45:55.448Z,2444
2018-07-12T08:47:04.584Z,2524
2018-07-12T08:48:13.446Z,2600
2018-07-12T08:49:22.459Z,2576
2018-07-12T08:50:31.320Z,2584
2018-07-12T08:51:40.184Z,2620
2018-07-12T08:52:49.044Z,2564
2018-07-12T08:53:57.907Z,2516
2018-07-12T08:55:06.924Z,2548
2018-07-12T08:56:15.791Z,2592
2018-07-12T08:57:24.656Z,2640
2018-07-12T08:58:33.865Z,2668
2018-07-12T08:59:42.731Z,2676
2018-07-12T09:00:51.598Z,2920
2018-07-12T09:02:00.736Z,3040
2018-07-12T09:03:10.081Z,2772
2018-07-12T09:04:18.941Z,2644
2018-07-12T09:05:27.811Z,2724
2018-07-12T09:06:37.054Z,2772
2018-07-12T09:07:45.915Z,2828
2018-07-12T09:08:54.777Z,2932
2018-07-12T09:10:03.642Z,3920
2018-07-12T09:11:12.508Z,4236
2018-07-12T09:12:21.475Z,3804
2018-07-12T09:13:30.614Z,3704
2018-07-12T09:14:39.476Z,3776
2018-07-12T09:15:48.396Z,3944
2018-07-12T09:16:57.208Z,3952
2018-07-12T09:18:06.324Z,4140
2018-07-12T09:19:15.190Z,4752
2018-07-12T09:20:24.051Z,5492
2018-07-12T09:21:32.917Z,6628
2018-07-12T09:22:41.780Z,7092
2018-07-12T09:23:51.199Z,6968
2018-07-12T09:25:00.064Z,6516
2018-07-12T09:26:08.929Z,6660
2018-07-12T09:27:18.071Z,6072
2018-07-12T09:28:27.212Z,5452
2018-07-12T09:29:36.427Z,6052
2018-07-12T09:30:45.585Z,6980
2018-07-12T09:31:54.442Z,5972
2018-07-12T09:33:03.590Z,4444
2018-07-12T09:34:12.454Z,3976
2018-07-12T09:35:21.469Z,4496
2018-07-12T09:36:30.609Z,4560
2018-07-12T09:37:39.475Z,4692
2018-07-12T09:38:48.343Z,4624
2018-07-12T09:39:57.211Z,4532
2018-07-12T09:41:06.992Z,3876
2018-07-12T09:42:15.857Z,4532
2018-07-12T09:43:24.725Z,4332
2018-07-12T09:44:33.590Z,4188
2018-07-12T09:45:42.735Z,4220
2018-07-12T09:46:51.752Z,4632
2018-07-12T09:48:00.896Z,5788
2018-07-12T09:49:09.789Z,6080
2018-07-12T09:50:18.640Z,6692
2018-07-12T09:51:27.504Z,6344
2018-07-12T09:52:36.375Z,6364
2018-07-12T09:53:45.792Z,5448
2018-07-12T09:54:54.945Z,4552
2018-07-12T09:56:05.000Z,3864
2018-07-12T09:57:13.705Z,4036
2018-07-12T09:58:22.673Z,4356
2018-07-12T09:59:31.538Z,4612
2018-07-12T10:00:40.402Z,4780
2018-07-12T10:01:49.545Z,5932
2018-07-12T10:02:58.412Z,7804
2018-07-12T10:04:07.278Z,9832
2018-07-12T10:05:16.427Z,10476
2018-07-12T10:06:25.575Z,9424
2018-07-12T10:07:34.443Z,8052
2018-07-12T10:08:43.303Z,8212
2018-07-12T10:09:52.446Z,8288
2018-07-12T10:11:01.315Z,7388
2018-07-12T10:12:10.457Z,6640
2018-07-12T10:13:19.320Z,5636
2018-07-12T10:14:28.183Z,5644
2018-07-12T10:15:37.320Z,6188
2018-07-12T10:16:46.184Z,6436
2018-07-12T10:17:55.050Z,7136
2018-07-12T10:19:03.916Z,8128
2018-07-12T10:20:12.785Z,9344
2018-07-12T10:21:21.657Z,10604
2018-07-12T10:22:30.519Z,11080
2018-07-12T10:23:39.383Z,10916
2018-07-12T10:24:48.526Z,10344
2018-07-12T10:25:57.393Z,8484
2018-07-12T10:27:06.259Z,6880
2018-07-12T10:28:15.410Z,5488
2018-07-12T10:29:24.559Z,5092
2018-07-12T10:30:33.430Z,5256
2018-07-12T10:31:42.572Z,4712
2018-07-12T10:32:52.090Z,5296
2018-07-12T10:34:00.953Z,6568
2018-07-12T10:35:10.094Z,7956
2018-07-12T10:36:18.959Z,9744
2018-07-12T10:37:27.824Z,11700
2018-07-12T10:38:36.851Z,13728
2018-07-12T10:39:45.712Z,14760
2018-07-12T10:40:54.578Z,14192
2018-07-12T10:42:03.444Z,12924
2018-07-12T10:43:12.317Z,12240
2018-07-12T10:44:21.468Z,10464
2018-07-12T10:45:30.612Z,8496
2018-07-12T10:46:39.756Z,7744
2018-07-12T10:47:48.907Z,8840
2018-07-12T10:48:57.779Z,10652
2018-07-12T10:50:06.646Z,12148
2018-07-12T10:51:15.511Z,12068
2018-07-12T10:52:24.377Z,12544
2018-07-12T10:53:33.525Z,13136
2018-07-12T10:54:42.385Z,13476
2018-07-12T10:55:51.251Z,13376
2018-07-12T10:57:00.115Z,12300
2018-07-12T10:58:08.982Z,11868
2018-07-12T10:59:18.133Z,11848
2018-07-12T11:00:27.000Z,12060
2018-07-12T11:01:35.973Z,12432
2018-07-12T11:02:45.114Z,12948
2018-07-12T11:03:54.254Z,12712
2018-07-12T11:05:03.403Z,11432
2018-07-12T11:06:12.824Z,9492
2018-07-12T11:07:21.795Z,7640
2018-07-12T11:08:30.660Z,6696
2018-07-12T11:09:39.527Z,6468
2018-07-12T11:10:48.676Z,6860
2018-07-12T11:11:57.543Z,8280
2018-07-12T11:13:06.770Z,9304
2018-07-12T11:14:15.638Z,10972
2018-07-12T11:15:25.336Z,12988
2018-07-12T11:16:34.201Z,15000
2018-07-12T11:17:43.067Z,16664
2018-07-12T11:18:52.287Z,16992
2018-07-12T11:20:01.161Z,15612
2018-07-12T11:21:10.096Z,16352
2018-07-12T11:22:19.527Z,15892
2018-07-12T11:23:28.398Z,13744
2018-07-12T11:24:37.268Z,9748
2018-07-12T11:25:46.134Z,8680
2018-07-12T11:26:55.005Z,8424
2018-07-12T11:28:04.204Z,8704
2018-07-12T11:29:13.017Z,8876
2018-07-12T11:30:21.895Z,8728
2018-07-12T11:31:31.306Z,8336
2018-07-12T11:32:40.174Z,7988
2018-07-12T11:33:49.044Z,7900
2018-07-12T11:34:58.186Z,7692
2018-07-12T11:36:07.055Z,7332
2018-07-12T11:37:16.387Z,7036
2018-07-12T11:38:25.259Z,6904
2018-07-12T11:39:34.404Z,6868
2018-07-12T11:40:43.272Z,6856
2018-07-12T11:41:52.763Z,6816
2018-07-12T11:43:01.628Z,6588
2018-07-12T11:44:10.495Z,6640
2018-07-12T11:45:19.365Z,6896
2018-07-12T11:46:28.234Z,7308
2018-07-12T11:47:37.102Z,7708
2018-07-12T11:48:45.968Z,8136
2018-07-12T11:49:54.834Z,8464
2018-07-12T11:51:03.704Z,8788
2018-07-12T11:52:12.571Z,9396
2018-07-12T11:53:21.787Z,9648
2018-07-12T11:54:30.653Z,9448
2018-07-12T11:55:39.521Z,9228
2018-07-12T11:56:48.387Z,8412
2018-07-12T11:57:57.252Z,8288
2018-07-12T11:59:06.392Z,8468
2018-07-12T12:00:15.532Z,9100
2018-07-12T12:01:24.496Z,32224
2018-07-12T12:02:33.651Z,74080
2018-07-12T12:03:42.843Z,76672
2018-07-12T12:04:51.714Z,80896
2018-07-12T12:06:00.586Z,80608
2018-07-12T12:07:09.742Z,81888
2018-07-12T12:08:18.610Z,77728
2018-07-12T12:09:27.765Z,79872
2018-07-12T12:10:37.106Z,83712
2018-07-12T12:11:46.240Z,83392
2018-07-12T12:12:55.508Z,85792
2018-07-12T12:14:04.799Z,47744
2018-07-12T12:15:13.672Z,60128
2018-07-12T12:16:22.543Z,84736
2018-07-12T12:17:31.424Z,75776
2018-07-12T12:18:40.283Z,60640
2018-07-12T12:19:49.156Z,90400
2018-07-12T12:20:58.027Z,62880
2018-07-12T12:22:07.182Z,92352
2018-07-12T12:23:16.329Z,88960
2018-07-12T12:24:25.225Z,85568
2018-07-12T12:25:34.075Z,86592
2018-07-12T12:26:42.948Z,79552
2018-07-12T12:27:51.823Z,77792
2018-07-12T12:29:00.698Z,83328
2018-07-12T12:30:09.571Z,84608
2018-07-12T12:31:18.722Z,53856
2018-07-12T12:32:27.596Z,93888
2018-07-12T12:33:36.997Z,82976
2018-07-12T12:34:45.786Z,15748
2018-07-12T12:35:54.662Z,10848
2018-07-12T12:37:03.537Z,10132
2018-07-12T12:38:12.690Z,11020
2018-07-12T12:39:21.666Z,10972
2018-07-12T12:40:30.813Z,11020
2018-07-12T12:41:39.684Z,11128
2018-07-12T12:42:48.554Z,11540
2018-07-12T12:43:57.426Z,11752
2018-07-12T12:45:06.299Z,12164
2018-07-12T12:46:15.171Z,13584
2018-07-12T12:47:24.043Z,14280
2018-07-12T12:48:33.192Z,19648
2018-07-12T12:49:42.346Z,29088
2018-07-12T12:50:51.571Z,69984
2018-07-12T12:52:00.407Z,92704
2018-07-12T12:53:09.280Z,87328
2018-07-12T12:54:18.147Z,87104
2018-07-12T12:55:27.020Z,45632
2018-07-12T12:56:35.994Z,36864
2018-07-12T12:57:44.864Z,23232
2018-07-12T12:58:54.032Z,14056
2018-07-12T13:00:03.235Z,15244
2018-07-12T13:01:12.068Z,14724
2018-07-12T13:02:20.940Z,14976
2018-07-12T13:03:29.814Z,15640
2018-07-12T13:04:38.688Z,16172
2018-07-12T13:05:47.560Z,62720
2018-07-12T13:06:56.431Z,61152
2018-07-12T13:08:05.814Z,5236
2018-07-12T13:09:15.041Z,3920
2018-07-12T13:10:23.912Z,3604
2018-07-12T13:11:32.784Z,3572
2018-07-12T13:12:41.655Z,3884
2018-07-12T13:13:50.527Z,4196
2018-07-12T13:14:59.402Z,4732
2018-07-12T13:16:08.560Z,5192
2018-07-12T13:17:17.426Z,6364
2018-07-12T13:18:26.575Z,8384
2018-07-12T13:19:35.442Z,10516
2018-07-12T13:20:44.587Z,14852
2018-07-12T13:21:53.731Z,77696
2018-07-12T13:23:02.602Z,85504
2018-07-12T13:24:11.473Z,87264
2018-07-12T13:25:20.632Z,85216
2018-07-12T13:26:29.502Z,84352
2018-07-12T13:27:38.651Z,89504
2018-07-12T13:28:48.476Z,86368
2018-07-12T13:29:57.352Z,83552
2018-07-12T13:31:06.427Z,83616
2018-07-12T13:32:15.302Z,86464
2018-07-12T13:33:24.451Z,87584
2018-07-12T13:34:33.327Z,89408
2018-07-12T13:35:42.493Z,89152
2018-07-12T13:36:51.368Z,88416
2018-07-12T13:38:00.243Z,89536
2018-07-12T13:39:09.120Z,66016
2018-07-12T13:40:17.997Z,11376
2018-07-12T13:41:27.152Z,11136
2018-07-12T13:42:36.030Z,12252
2018-07-12T13:43:44.903Z,16132
2018-07-12T13:44:53.780Z,90144
2018-07-12T13:46:02.657Z,16488
2018-07-12T13:47:11.533Z,15020
2018-07-12T13:48:20.832Z,14904
2018-07-12T13:49:29.710Z,11920
2018-07-12T13:50:38.584Z,10056
2018-07-12T13:51:47.734Z,9852
2018-07-12T13:52:56.886Z,62592
2018-07-12T13:54:05.759Z,87680
2018-07-12T13:55:14.635Z,9652
2018-07-12T13:56:23.510Z,8912
2018-07-12T13:57:32.383Z,8280
2018-07-12T13:58:41.689Z,7736
2018-07-12T13:59:50.562Z,7904
2018-07-12T14:00:59.447Z,8496
2018-07-12T14:02:08.601Z,9488
2018-07-12T14:03:18.023Z,11744
2018-07-12T14:04:26.896Z,86272
2018-07-12T14:05:36.206Z,87616
2018-07-12T14:06:45.078Z,87872
2018-07-12T14:07:53.951Z,90016
2018-07-12T14:09:02.823Z,88832
2018-07-12T14:10:11.973Z,84032
2018-07-12T14:11:20.846Z,86368
2018-07-12T14:12:29.720Z,89248
2018-07-12T14:13:38.596Z,90528
2018-07-12T14:14:47.745Z,86208
2018-07-12T14:15:56.620Z,83712
2018-07-12T14:17:05.494Z,85824
2018-07-12T14:18:14.370Z,81344
2018-07-12T14:19:23.246Z,73024
2018-07-12T14:20:32.124Z,28544
2018-07-12T14:21:41.001Z,91936
2018-07-12T14:22:49.879Z,18912
2018-07-12T14:23:59.034Z,17440
2018-07-12T14:25:07.911Z,84352
2018-07-12T14:26:16.787Z,85600
2018-07-12T14:27:25.949Z,65216
2018-07-12T14:28:35.097Z,65088
2018-07-12T14:29:43.971Z,87424
2018-07-12T14:30:52.847Z,84800
2018-07-12T14:32:01.728Z,80544
2018-07-12T14:33:10.605Z,79968
2018-07-12T14:34:19.584Z,80608
2018-07-12T14:35:28.739Z,80864
2018-07-12T14:36:37.616Z,84256
2018-07-12T14:37:46.493Z,83808
2018-07-12T14:38:55.371Z,84256
2018-07-12T14:40:04.600Z,80704
2018-07-12T14:41:13.481Z,80064
2018-07-12T14:42:22.367Z,79328
2018-07-12T14:43:31.244Z,80480
2018-07-12T14:44:40.126Z,80000
2018-07-12T14:45:49.430Z,78016
2018-07-12T14:46:58.369Z,77344
2018-07-12T14:48:07.189Z,77568
2018-07-12T14:49:16.067Z,78016
2018-07-12T14:50:24.948Z,77088
2018-07-12T14:51:33.826Z,75584
2018-07-12T14:52:42.706Z,75104
2018-07-12T14:53:52.141Z,75392
2018-07-12T14:55:01.023Z,74784
2018-07-12T14:56:10.183Z,72928
2018-07-12T14:57:19.497Z,71392
2018-07-12T14:58:28.376Z,73248
2018-07-12T14:59:37.257Z,76640
2018-07-12T15:00:46.427Z,77888
2018-07-12T15:01:55.308Z,80288
2018-07-12T15:03:04.184Z,81984
2018-07-12T15:04:13.067Z,83424
2018-07-12T15:05:21.949Z,82016
2018-07-12T15:06:30.828Z,79520
2018-07-12T15:07:39.706Z,79072
2018-07-12T15:08:48.774Z,82720
2018-07-12T15:09:57.617Z,83744
2018-07-12T15:11:06.783Z,80608
2018-07-12T15:12:15.662Z,80128
2018-07-12T15:13:24.817Z,78816
2018-07-12T15:14:33.846Z,78496
2018-07-12T15:15:42.728Z,80160
2018-07-12T15:16:51.980Z,81152
2018-07-12T15:18:00.837Z,80192
2018-07-12T15:19:09.799Z,76512
2018-07-12T15:20:19.231Z,76512
2018-07-12T15:21:28.113Z,75936
2018-07-12T15:22:36.992Z,75456
2018-07-12T15:23:45.872Z,73760
2018-07-12T15:24:54.752Z,75904
2018-07-12T15:26:04.458Z,79552
2018-07-12T15:27:13.207Z,77024
2018-07-12T15:28:22.091Z,73792
2018-07-12T15:29:31.474Z,76064
2018-07-12T15:30:40.585Z,77568